Time;durP1;ratioP1;P1;durP2;ratioP2;P2;SDS_P1;SDS_P2;PMS_P1;PMS_P2;Temp;Humidity;BMP_temperature;BMP_pressure;BME280_temperature;BME280_humidity;BME280_pressure;Samples;Min_cycle;Max_cycle;Signal;HPM_P1;HPM_P2
2022/06/08 00:02:14;;;;;;;15.15;12.45;;;11.70;99.90;;;;;;5025879;28;20067;-55
2022/06/08 00:04:40;;;;;;;16.52;13.00;;;11.70;99.90;;;;;;5025907;28;20194;-53
2022/06/08 00:07:06;;;;;;;17.33;14.00;;;11.70;99.90;;;;;;5028448;28;20041;-54
2022/06/08 00:09:32;;;;;;;15.85;14.13;;;11.70;99.90;;;;;;5029658;28;20451;-53
2022/06/08 00:11:57;;;;;;;16.45;13.35;;;11.70;99.90;;;;;;5028126;28;20048;-53
2022/06/08 00:14:23;;;;;;;18.88;13.52;;;11.70;99.90;;;;;;5028876;28;20271;-54
2022/06/08 00:16:48;;;;;;;18.10;14.15;;;11.70;99.90;;;;;;5027921;28;20128;-54
2022/06/08 00:19:14;;;;;;;16.55;14.70;;;11.70;99.90;;;;;;5025009;28;20080;-55
2022/06/08 00:21:40;;;;;;;15.65;12.77;;;11.80;99.90;;;;;;5028486;28;20095;-55
2022/06/08 00:24:05;;;;;;;16.15;13.65;;;11.70;99.90;;;;;;5027818;28;20128;-54
2022/06/08 00:26:32;;;;;;;18.65;14.98;;;11.70;99.90;;;;;;5024335;28;20033;-52
2022/06/08 00:28:57;;;;;;;17.75;15.43;;;11.80;99.90;;;;;;5028901;28;20124;-55
2022/06/08 00:31:23;;;;;;;17.42;14.63;;;11.90;99.90;;;;;;5027197;28;20120;-56
2022/06/08 00:33:49;;;;;;;19.15;15.05;;;11.90;99.90;;;;;;5026943;28;20037;-55
2022/06/08 00:36:15;;;;;;;20.38;16.23;;;12.00;99.90;;;;;;5022658;28;20053;-53
2022/06/08 00:38:40;;;;;;;16.77;14.63;;;12.00;99.90;;;;;;5028923;28;20436;-56
2022/06/08 00:41:15;;;;;;;18.70;15.00;;;12.00;99.90;;;;;;5029907;28;20430;-53
2022/06/08 00:43:41;;;;;;;18.80;15.45;;;12.10;99.90;;;;;;5033415;28;20099;-55
2022/06/08 00:46:08;;;;;;;18.10;16.10;;;12.00;99.90;;;;;;5026718;28;20041;-55
2022/06/08 00:48:38;;;;;;;18.52;16.52;;;12.10;99.90;;;;;;5031133;28;20048;-54
2022/06/08 00:51:04;;;;;;;22.38;15.98;;;12.10;99.90;;;;;;5013727;28;20046;-55
2022/06/08 00:53:34;;;;;;;20.65;16.13;;;12.20;99.90;;;;;;5030088;28;20095;-56
2022/06/08 00:56:03;;;;;;;18.52;15.85;;;12.20;99.90;;;;;;5026384;28;20128;-55
2022/06/08 00:58:31;;;;;;;18.50;15.50;;;12.30;99.90;;;;;;5026858;28;20058;-56
2022/06/08 01:00:58;;;;;;;17.88;15.23;;;12.30;99.90;;;;;;5027391;28;20514;-56
2022/06/08 01:03:26;;;;;;;18.67;16.13;;;12.30;99.90;;;;;;5034177;28;20084;-56
2022/06/08 01:05:59;;;;;;;20.88;16.20;;;12.40;99.90;;;;;;5030749;28;20534;-55
2022/06/08 01:08:42;;;;;;;17.90;15.98;;;12.40;99.90;;;;;;5031122;28;20037;-54
2022/06/08 01:11:28;;;;;;;16.83;13.98;;;12.50;99.90;;;;;;5032766;28;20100;-56
2022/06/08 01:13:59;;;;;;;18.23;14.00;;;12.50;99.90;;;;;;5017084;28;20049;-57
2022/06/08 01:16:25;;;;;;;15.63;13.95;;;12.60;99.90;;;;;;5022610;28;20470;-57
2022/06/08 01:18:51;;;;;;;19.30;15.07;;;12.60;99.90;;;;;;5023797;28;20045;-55
2022/06/08 01:21:22;;;;;;;15.85;14.13;;;12.70;99.90;;;;;;5030447;28;20056;-58
2022/06/08 01:23:55;;;;;;;16.10;14.40;;;12.70;99.90;;;;;;5032080;28;20045;-55
2022/06/08 01:26:43;;;;;;;17.50;15.63;;;12.70;99.90;;;;;;5027912;28;20125;-54
2022/06/08 01:29:33;;;;;;;17.38;14.02;;;12.70;99.90;;;;;;5031145;28;20041;-56
2022/06/08 01:32:18;;;;;;;16.13;14.43;;;12.70;99.90;;;;;;5030688;28;20073;-56
2022/06/08 01:35:09;;;;;;;19.00;15.50;;;12.70;99.90;;;;;;5029830;28;20040;-55
2022/06/08 01:37:59;;;;;;;19.88;15.15;;;12.70;99.90;;;;;;5026440;28;20041;-54
2022/06/08 01:40:55;;;;;;;18.00;15.05;;;12.70;99.90;;;;;;5029400;28;20065;-56
2022/06/08 01:43:36;;;;;;;16.33;14.65;;;12.70;99.90;;;;;;5007159;28;20132;-54
2022/06/08 01:46:20;;;;;;;17.65;14.93;;;12.70;99.90;;;;;;5018310;28;20504;-55
2022/06/08 01:49:11;;;;;;;17.83;14.45;;;12.70;99.90;;;;;;5029082;28;20049;-56
2022/06/08 01:51:51;;;;;;;16.55;14.60;;;12.70;99.90;;;;;;5022330;28;20056;-58
2022/06/08 01:54:54;;;;;;;16.52;13.55;;;12.70;99.90;;;;;;5030047;28;20045;-55
2022/06/08 01:57:56;;;;;;;13.98;12.25;;;12.70;99.90;;;;;;4999461;28;20563;-56
2022/06/08 02:00:23;;;;;;;16.85;13.05;;;12.70;99.90;;;;;;5022908;28;20072;-56
2022/06/08 02:03:10;;;;;;;13.38;11.98;;;12.80;99.90;;;;;;5026163;28;20455;-56
2022/06/08 02:06:06;;;;;;;16.45;11.95;;;12.80;99.90;;;;;;5032171;28;20041;-54
2022/06/08 02:08:59;;;;;;;14.63;13.10;;;12.80;99.90;;;;;;5027671;28;20059;-55
2022/06/08 02:11:53;;;;;;;14.07;11.60;;;12.70;99.90;;;;;;5027028;28;20041;-56
2022/06/08 02:14:35;;;;;;;14.98;11.18;;;12.70;99.90;;;;;;5018274;28;20042;-56
2022/06/08 02:17:16;;;;;;;16.05;12.90;;;12.70;99.90;;;;;;5026826;28;20049;-53
2022/06/08 02:19:46;;;;;;;14.77;12.32;;;12.70;99.90;;;;;;5031279;28;20048;-56
2022/06/08 02:22:18;;;;;;;15.88;13.77;;;12.60;99.90;;;;;;5027159;28;20552;-57
2022/06/08 02:24:46;;;;;;;14.65;12.93;;;12.60;99.90;;;;;;5031116;28;20037;-54
2022/06/08 02:27:21;;;;;;;15.85;13.45;;;12.60;99.90;;;;;;5031299;28;20490;-55
2022/06/08 02:30:13;;;;;;;14.07;12.35;;;12.60;99.90;;;;;;5027762;28;20080;-54
2022/06/08 02:35:34;;;;;;;14.63;12.98;;;12.70;99.90;;;;;;5023721;28;20069;-53
2022/06/08 02:38:10;;;;;;;16.58;13.23;;;12.70;99.90;;;;;;5028254;28;20043;-54
2022/06/08 02:40:37;;;;;;;17.65;13.07;;;12.70;99.90;;;;;;5031819;28;20110;-53
2022/06/08 02:43:15;;;;;;;17.20;13.85;;;12.70;99.90;;;;;;5025448;28;20095;-53
2022/06/08 02:45:44;;;;;;;14.70;12.85;;;12.70;99.90;;;;;;5030395;28;20125;-54
2022/06/08 02:48:14;;;;;;;16.88;13.43;;;12.70;99.90;;;;;;5030264;28;20345;-54
2022/06/08 02:50:56;;;;;;;15.43;13.40;;;12.70;99.90;;;;;;5029239;28;20041;-56
2022/06/08 02:53:22;;;;;;;16.27;14.18;;;12.80;99.90;;;;;;5025811;28;20056;-55
2022/06/08 02:56:09;;;;;;;16.00;13.35;;;12.70;99.90;;;;;;5028834;28;20384;-55
2022/06/08 02:59:06;;;;;;;16.70;14.52;;;12.80;99.90;;;;;;5026281;28;20102;-55
2022/06/08 03:02:01;;;;;;;14.25;12.25;;;12.80;99.90;;;;;;5027360;28;20041;-54
2022/06/08 03:04:41;;;;;;;16.20;13.18;;;12.80;99.90;;;;;;5025850;28;20045;-55
2022/06/08 03:07:16;;;;;;;15.05;13.30;;;12.80;99.90;;;;;;5021240;28;20128;-50
2022/06/08 03:09:43;;;;;;;17.95;14.70;;;12.80;99.90;;;;;;5011412;28;20496;-54
2022/06/08 03:12:33;;;;;;;16.20;13.50;;;12.70;99.90;;;;;;5018590;28;20135;-55
2022/06/08 03:15:05;;;;;;;15.88;13.88;;;12.70;99.90;;;;;;5030103;28;20038;-55
2022/06/08 03:17:34;;;;;;;14.35;12.85;;;12.80;99.90;;;;;;5028960;28;20500;-54
2022/06/08 03:20:01;;;;;;;14.90;13.50;;;12.70;99.90;;;;;;5028137;28;20475;-56
2022/06/08 03:22:28;;;;;;;16.80;13.57;;;12.70;99.90;;;;;;5027817;28;20037;-53
2022/06/08 03:24:54;;;;;;;17.95;14.32;;;12.70;99.90;;;;;;5028022;28;20041;-55
2022/06/08 03:27:20;;;;;;;15.13;13.55;;;12.80;99.90;;;;;;5027506;28;20041;-56
2022/06/08 03:29:46;;;;;;;14.35;12.93;;;12.80;99.90;;;;;;5025130;28;20099;-52
2022/06/08 03:32:12;;;;;;;16.70;12.45;;;12.80;99.90;;;;;;5027746;28;20125;-52
2022/06/08 03:34:38;;;;;;;17.08;13.05;;;12.80;99.90;;;;;;5025678;28;20037;-52
2022/06/08 03:37:05;;;;;;;13.80;12.40;;;12.90;99.90;;;;;;5028774;28;20086;-54
2022/06/08 03:39:30;;;;;;;13.98;12.48;;;12.90;99.90;;;;;;5029542;28;20045;-53
2022/06/08 03:41:56;;;;;;;16.65;13.68;;;13.00;99.90;;;;;;5029231;28;20045;-53
2022/06/08 03:44:22;;;;;;;15.70;12.63;;;13.00;99.90;;;;;;5029866;28;20447;-54
2022/06/08 03:46:54;;;;;;;14.52;12.95;;;13.00;99.90;;;;;;5025633;28;20068;-54
2022/06/08 03:49:22;;;;;;;14.77;12.98;;;13.10;99.90;;;;;;5029189;28;20056;-52
2022/06/08 03:51:50;;;;;;;17.50;13.48;;;13.10;99.90;;;;;;5025348;28;20052;-53
2022/06/08 03:54:18;;;;;;;15.15;13.10;;;13.10;99.90;;;;;;5028811;28;20160;-51
2022/06/08 03:56:48;;;;;;;15.93;12.88;;;13.20;99.90;;;;;;5025862;28;20045;-53
2022/06/08 03:59:14;;;;;;;14.15;12.65;;;;;;;;;;5025302;28;20049;-53
2022/06/08 04:01:40;;;;;;;16.50;12.77;;;13.30;99.90;;;;;;5026378;28;20034;-52
2022/06/08 04:04:06;;;;;;;17.85;13.43;;;13.30;99.90;;;;;;5018447;28;20487;-53
2022/06/08 04:06:31;;;;;;;16.75;13.90;;;13.30;99.90;;;;;;5027208;28;20069;-53
2022/06/08 04:08:57;;;;;;;16.13;12.57;;;13.40;99.90;;;;;;5021068;28;20037;-50
2022/06/08 04:11:23;;;;;;;17.33;13.90;;;13.40;99.90;;;;;;5029558;28;20048;-51
2022/06/08 04:13:49;;;;;;;18.45;14.90;;;13.50;99.90;;;;;;5028358;28;20124;-53
2022/06/08 04:16:15;;;;;;;17.42;14.43;;;13.50;99.90;;;;;;5032709;28;20041;-54
2022/06/08 04:18:41;;;;;;;16.10;14.40;;;13.60;99.90;;;;;;5034232;28;20149;-51
2022/06/08 04:21:09;;;;;;;17.08;15.38;;;13.60;99.90;;;;;;5032701;28;20167;-53
2022/06/08 04:23:36;;;;;;;19.25;16.08;;;13.60;99.90;;;;;;5030320;28;20096;-53
2022/06/08 04:26:02;;;;;;;19.75;16.10;;;13.70;99.90;;;;;;5024068;28;20480;-53
2022/06/08 04:28:28;;;;;;;18.48;16.58;;;13.70;99.90;;;;;;5031995;28;20186;-53
2022/06/08 04:30:54;;;;;;;18.80;16.83;;;13.90;99.90;;;;;;5032713;28;20091;-49
2022/06/08 04:33:20;;;;;;;21.75;17.48;;;13.90;99.90;;;;;;5033065;28;20053;-53
2022/06/08 04:35:46;;;;;;;18.80;16.90;;;13.90;99.90;;;;;;5034192;28;20049;-52
2022/06/08 04:38:12;;;;;;;20.70;18.50;;;14.00;99.90;;;;;;5031908;28;20125;-53
2022/06/08 04:40:38;;;;;;;21.58;18.67;;;14.10;99.90;;;;;;5031738;28;20556;-54
2022/06/08 04:43:04;;;;;;;23.08;19.33;;;14.10;99.90;;;;;;5032486;28;20071;-54
2022/06/08 04:45:29;;;;;;;21.13;18.92;;;14.10;99.90;;;;;;5032656;28;20041;-54
2022/06/08 04:47:55;;;;;;;20.95;18.65;;;14.20;99.90;;;;;;5031186;28;20048;-54
2022/06/08 04:50:21;;;;;;;21.38;19.17;;;14.40;99.90;;;;;;5032679;28;20045;-52
2022/06/08 04:52:48;;;;;;;20.58;18.42;;;14.40;99.90;;;;;;5032001;28;20072;-52
2022/06/08 04:55:15;;;;;;;19.42;17.50;;;14.50;99.90;;;;;;5030404;28;20463;-53
2022/06/08 04:57:40;;;;;;;20.95;18.75;;;14.60;99.90;;;;;;5031689;28;20033;-53
2022/06/08 05:00:08;;;;;;;21.17;18.90;;;;;;;;;;5031615;28;20103;-53
2022/06/08 05:02:42;;;;;;;20.83;18.63;;;14.80;99.90;;;;;;5033030;28;20037;-54
2022/06/08 05:05:08;;;;;;;23.90;18.30;;;14.90;99.90;;;;;;5028224;28;20045;-53
2022/06/08 05:07:35;;;;;;;23.67;19.33;;;15.20;99.90;;;;;;5030231;28;20037;-54
2022/06/08 05:10:00;;;;;;;22.08;19.70;;;;;;;;;;5030117;28;20434;-52
2022/06/08 05:12:26;;;;;;;24.83;19.58;;;15.30;99.90;;;;;;5031797;28;20077;-54
2022/06/08 05:14:52;;;;;;;22.98;20.13;;;15.30;99.90;;;;;;5024929;28;20049;-53
2022/06/08 05:17:17;;;;;;;22.42;19.30;;;15.40;99.90;;;;;;5031748;28;20048;-54
2022/06/08 05:19:43;;;;;;;21.40;19.10;;;15.40;99.90;;;;;;5027337;28;20041;-54
2022/06/08 05:22:08;;;;;;;20.60;18.40;;;15.40;99.90;;;;;;5027892;28;20128;-54
2022/06/08 05:24:34;;;;;;;21.95;19.20;;;15.50;99.90;;;;;;5031958;28;20506;-54
2022/06/08 05:26:59;;;;;;;21.40;19.20;;;15.50;99.90;;;;;;5032119;28;20041;-49
2022/06/08 05:29:25;;;;;;;21.45;18.98;;;15.50;99.90;;;;;;5031730;28;20122;-53
2022/06/08 05:31:50;;;;;;;21.77;19.48;;;15.60;99.90;;;;;;5023977;28;20037;-51
2022/06/08 05:34:16;;;;;;;19.90;17.70;;;15.70;99.90;;;;;;5029476;28;20061;-53
2022/06/08 05:36:42;;;;;;;20.58;18.48;;;15.80;99.90;;;;;;5030681;28;20455;-54
2022/06/08 05:39:08;;;;;;;22.10;19.83;;;15.90;99.90;;;;;;5027946;28;20038;-54
2022/06/08 05:41:33;;;;;;;18.95;17.15;;;16.30;99.90;;;;;;5029754;28;20042;-53
2022/06/08 05:44:00;;;;;;;20.55;18.50;;;16.40;99.90;;;;;;5031270;28;20096;-55
2022/06/08 05:46:26;;;;;;;22.33;19.08;;;16.70;99.90;;;;;;5029274;28;20041;-54
2022/06/08 05:48:51;;;;;;;20.08;17.95;;;17.10;99.90;;;;;;5029400;28;20045;-54
2022/06/08 05:51:17;;;;;;;19.50;17.42;;;17.20;99.90;;;;;;5029580;28;20157;-54
2022/06/08 05:53:45;;;;;;;19.02;17.20;;;18.00;99.90;;;;;;5024282;28;20042;-56
2022/06/08 05:56:10;;;;;;;18.30;16.50;;;18.90;99.90;;;;;;5028668;28;20045;-53
2022/06/08 05:58:36;;;;;;;18.55;16.75;;;20.30;99.90;;;;;;5031564;28;20037;-55
2022/06/08 06:01:02;;;;;;;18.42;16.63;;;20.10;99.90;;;;;;5027864;28;20064;-52
2022/06/08 06:03:27;;;;;;;17.65;15.85;;;20.00;99.90;;;;;;5027182;28;20356;-52
2022/06/08 06:05:53;;;;;;;17.90;16.20;;;19.90;99.90;;;;;;5030677;28;20045;-53
2022/06/08 06:08:19;;;;;;;19.13;17.13;;;20.10;99.90;;;;;;5031780;28;20041;-54
2022/06/08 06:10:46;;;;;;;18.58;16.88;;;20.70;99.90;;;;;;5029936;28;20037;-53
2022/06/08 06:13:12;;;;;;;19.17;17.27;;;21.50;99.90;;;;;;5027874;28;20030;-54
2022/06/08 06:15:38;;;;;;;18.40;16.67;;;22.50;99.90;;;;;;5029111;28;20109;-54
2022/06/08 06:18:05;;;;;;;17.27;15.73;;;23.10;99.90;;;;;;5029214;28;20452;-54
2022/06/08 06:20:31;;;;;;;18.58;16.92;;;23.90;99.90;;;;;;5031205;28;20048;-54
2022/06/08 06:22:57;;;;;;;16.17;14.57;;;24.40;99.90;;;;;;5030455;28;20037;-53
2022/06/08 06:25:23;;;;;;;16.35;14.95;;;24.80;99.90;;;;;;5028730;28;20049;-53
2022/06/08 06:27:49;;;;;;;17.02;15.43;;;24.40;99.90;;;;;;5026657;28;20060;-53
2022/06/08 06:30:15;;;;;;;15.23;13.68;;;24.70;99.90;;;;;;5031958;28;20483;-54
2022/06/08 06:32:43;;;;;;;14.43;13.07;;;24.90;99.90;;;;;;5026887;28;20104;-53
2022/06/08 06:35:17;;;;;;;15.25;13.93;;;24.80;99.90;;;;;;5026054;28;20090;-54
2022/06/08 06:37:43;;;;;;;15.98;14.48;;;25.10;99.90;;;;;;5028762;28;20377;-55
2022/06/08 06:40:09;;;;;;;16.63;15.02;;;25.20;99.90;;;;;;5029169;28;20116;-55
2022/06/08 06:42:35;;;;;;;15.38;13.85;;;25.00;99.90;;;;;;5013187;28;20050;-55
2022/06/08 06:45:01;;;;;;;15.73;14.27;;;24.80;99.90;;;;;;5012820;28;20034;-54
2022/06/08 06:47:26;;;;;;;15.57;14.02;;;24.80;99.90;;;;;;5014788;28;20095;-56
2022/06/08 06:49:52;;;;;;;14.85;13.45;;;24.80;99.90;;;;;;5029375;28;20124;-55
2022/06/08 06:52:18;;;;;;;13.93;12.63;;;24.50;99.90;;;;;;5026450;28;20060;-54
2022/06/08 06:54:44;;;;;;;14.68;13.38;;;24.30;99.90;;;;;;5025401;28;20041;-55
2022/06/08 06:57:10;;;;;;;13.90;12.60;;;24.10;99.90;;;;;;5024671;28;20045;-57
2022/06/08 06:59:35;;;;;;;13.75;12.50;;;23.50;99.90;;;;;;5026934;28;20037;-56
2022/06/08 07:02:01;;;;;;;14.35;13.00;;;23.60;99.90;;;;;;5027261;28;20030;-54
2022/06/08 07:04:27;;;;;;;13.85;12.55;;;23.80;99.90;;;;;;5027926;28;20749;-55
2022/06/08 07:06:53;;;;;;;13.73;12.52;;;23.60;99.90;;;;;;5026872;28;20043;-55
2022/06/08 07:09:19;;;;;;;12.50;11.32;;;23.90;99.90;;;;;;5029106;28;20045;-55
2022/06/08 07:11:45;;;;;;;13.90;12.50;;;23.60;99.90;;;;;;5026073;28;20041;-55
2022/06/08 07:14:17;;;;;;;12.98;11.77;;;23.90;99.90;;;;;;5029816;28;20465;-55
2022/06/08 07:16:45;;;;;;;12.18;11.15;;;24.20;99.90;;;;;;5025407;28;20037;-55
2022/06/08 07:19:11;;;;;;;12.23;11.13;;;24.30;99.90;;;;;;5029483;28;20038;-55
2022/06/08 07:21:37;;;;;;;11.45;10.35;;;24.60;99.90;;;;;;5030700;28;20038;-55
2022/06/08 07:24:03;;;;;;;10.73;9.90;;;24.80;99.90;;;;;;5026720;28;20033;-55
2022/06/08 07:26:29;;;;;;;9.60;8.60;;;24.90;99.90;;;;;;5027711;28;20050;-56
2022/06/08 07:28:56;;;;;;;8.30;7.55;;;24.90;99.90;;;;;;5028927;28;20045;-55
2022/06/08 07:31:22;;;;;;;7.95;7.15;;;24.80;99.90;;;;;;5029550;28;20120;-56
2022/06/08 07:33:48;;;;;;;8.43;7.63;;;24.80;99.90;;;;;;5026228;28;20045;-56
2022/06/08 07:36:15;;;;;;;9.50;8.68;;;25.00;99.90;;;;;;5021448;28;20101;-56
2022/06/08 07:38:40;;;;;;;8.75;7.90;;;25.00;99.90;;;;;;5027158;28;20443;-55
2022/06/08 07:41:06;;;;;;;9.13;8.23;;;24.70;99.90;;;;;;5027474;28;20037;-56
2022/06/08 07:43:32;;;;;;;8.40;7.50;;;24.50;99.90;;;;;;5028479;28;20079;-56
2022/06/08 07:45:58;;;;;;;8.77;7.18;;;24.50;99.90;;;;;;5027932;28;20207;-55
2022/06/08 07:51:09;;;;;;;7.97;7.18;;;23.90;99.90;;;;;;5033205;28;20514;-56
2022/06/08 07:53:34;;;;;;;8.65;7.85;;;23.50;99.90;;;;;;5022206;28;20385;-57
2022/06/08 07:56:00;;;;;;;7.93;7.20;;;23.40;99.90;;;;;;5030156;28;20056;-56
2022/06/08 07:58:26;;;;;;;7.03;6.32;;;23.40;99.90;;;;;;5032334;28;20128;-56
2022/06/08 08:00:53;;;;;;;6.95;6.35;;;23.20;99.90;;;;;;5033100;28;20099;-55
2022/06/08 08:03:20;;;;;;;7.57;6.80;;;23.10;99.90;;;;;;5028931;28;20056;-56
2022/06/08 08:05:46;;;;;;;9.37;6.97;;;23.00;99.90;;;;;;5033256;28;20487;-56
2022/06/08 08:08:14;;;;;;;8.93;8.00;;;23.00;99.90;;;;;;5031324;28;20046;-56
2022/06/08 08:10:40;;;;;;;9.35;6.90;;;23.00;99.90;;;;;;5028693;28;20132;-56
2022/06/08 08:13:07;;;;;;;8.05;7.25;;;23.20;99.90;;;;;;5027551;28;20132;-56
2022/06/08 08:15:33;;;;;;;8.50;7.70;;;23.20;99.90;;;;;;5033957;28;20055;-56
2022/06/08 08:17:59;;;;;;;11.45;8.35;;;22.90;99.90;;;;;;5028974;28;20053;-55
2022/06/08 08:20:28;;;;;;;11.25;7.90;;;22.80;99.90;;;;;;5031460;28;20037;-55
2022/06/08 08:22:55;;;;;;;9.60;8.40;;;22.40;99.90;;;;;;5028309;28;20045;-56
2022/06/08 08:25:20;;;;;;;8.38;7.57;;;22.10;99.90;;;;;;5034418;28;20054;-55
2022/06/08 08:27:46;;;;;;;10.82;8.25;;;22.10;99.90;;;;;;5030054;28;20045;-56
2022/06/08 08:30:18;;;;;;;11.27;8.23;;;22.10;99.90;;;;;;5023179;28;20037;-56
2022/06/08 08:32:44;;;;;;;7.90;7.20;;;22.20;99.90;;;;;;5022929;28;20546;-55
2022/06/08 08:35:10;;;;;;;7.38;6.72;;;22.60;99.90;;;;;;5030714;28;20598;-55
2022/06/08 08:37:37;;;;;;;8.82;7.70;;;23.10;99.90;;;;;;5027965;28;20502;-56
2022/06/08 08:40:05;;;;;;;6.97;6.38;;;23.10;99.90;;;;;;5026846;28;20451;-56
2022/06/08 08:42:31;;;;;;;5.78;5.18;;;23.40;99.90;;;;;;5033858;28;20041;-55
2022/06/08 08:45:01;;;;;;;6.95;6.32;;;23.50;99.90;;;;;;5033403;28;20432;-55
2022/06/08 08:47:49;;;;;;;7.93;6.30;;;23.20;99.90;;;;;;5032042;28;20588;-56
2022/06/08 08:50:25;;;;;;;7.05;5.93;;;23.40;99.90;;;;;;5029427;28;20459;-56
2022/06/08 08:53:09;;;;;;;7.00;5.45;;;23.40;99.90;;;;;;5022477;28;20046;-56
2022/06/08 08:55:58;;;;;;;5.43;4.93;;;23.30;99.90;;;;;;5029506;28;20095;-56
2022/06/08 08:58:39;;;;;;;6.78;4.03;;;23.20;99.90;;;;;;5027765;28;20042;-56
2022/06/08 09:01:20;;;;;;;5.63;4.25;;;22.90;99.90;;;;;;5029413;28;20512;-55
2022/06/08 09:03:55;;;;;;;6.40;4.82;;;22.90;99.90;;;;;;5029022;28;20037;-56
2022/06/08 09:06:24;;;;;;;4.82;4.30;;;22.90;99.90;;;;;;5014423;28;20514;-56
2022/06/08 09:08:52;;;;;;;6.10;5.13;;;23.10;99.90;;;;;;5017270;28;20053;-56
2022/06/08 09:11:47;;;;;;;5.75;4.97;;;22.90;99.90;;;;;;5029162;28;20048;-55
2022/06/08 09:14:22;;;;;;;5.15;4.43;;;22.90;99.90;;;;;;5021376;28;20053;-55
2022/06/08 09:16:50;;;;;;;5.32;3.60;;;22.80;99.90;;;;;;5029957;28;20053;-55
2022/06/08 09:19:22;;;;;;;6.22;3.90;;;22.40;99.90;;;;;;5032119;28;20045;-55
2022/06/08 09:21:59;;;;;;;3.95;3.50;;;22.00;99.90;;;;;;5027858;28;20101;-55
2022/06/08 09:24:28;;;;;;;4.65;4.10;;;22.00;99.90;;;;;;5032080;28;20079;-56
2022/06/08 09:26:57;;;;;;;4.43;3.88;;;22.10;99.90;;;;;;5029196;28;20116;-56
2022/06/08 09:29:29;;;;;;;5.55;3.55;;;22.10;99.90;;;;;;5033267;28;20407;-56
2022/06/08 09:31:55;;;;;;;4.55;3.80;;;22.50;99.90;;;;;;5031279;28;20046;-56
2022/06/08 09:34:29;;;;;;;6.15;3.67;;;22.80;99.90;;;;;;5032671;28;20099;-56
2022/06/08 09:37:20;;;;;;;5.43;4.25;;;23.00;99.90;;;;;;5015813;28;20042;-56
2022/06/08 09:39:46;;;;;;;4.50;4.10;;;23.00;99.90;;;;;;5014678;28;20045;-54
2022/06/08 09:42:31;;;;;;;5.13;4.30;;;23.10;99.90;;;;;;5029457;28;20044;-56
2022/06/08 09:45:11;;;;;;;6.40;4.60;;;23.20;99.90;;;;;;5032795;28;20033;-55
2022/06/08 09:54:29;;;;;;;6.28;4.78;;;23.20;99.90;;;;;;5028743;28;20046;-63
2022/06/08 09:57:02;;;;;;;10.88;4.75;;;23.40;99.90;;;;;;4997388;28;20054;-62
2022/06/08 09:59:47;;;;;;;5.45;4.15;;;23.30;99.90;;;;;;5030338;28;20045;-62
2022/06/08 10:02:28;;;;;;;5.47;3.97;;;23.40;99.90;;;;;;5032355;28;20049;-62
2022/06/08 10:05:31;;;;;;;7.25;4.10;;;23.60;99.90;;;;;;5023694;28;20041;-62
2022/06/08 10:08:22;;;;;;;5.53;4.07;;;23.50;99.90;;;;;;5032587;28;20446;-62
2022/06/08 10:11:36;;;;;;;4.22;3.75;;;23.70;99.90;;;;;;5032174;28;20045;-62
2022/06/08 10:14:11;;;;;;;4.82;3.20;;;24.00;99.90;;;;;;5030258;28;20133;-62
2022/06/08 10:16:44;;;;;;;4.50;3.38;;;23.90;99.90;;;;;;5030700;28;20124;-63
2022/06/08 10:19:18;;;;;;;6.57;3.65;;;23.60;99.90;;;;;;5031957;28;20045;-63
2022/06/08 10:21:44;;;;;;;4.85;4.00;;;23.90;99.90;;;;;;5032382;28;20124;-63
2022/06/08 10:24:19;;;;;;;5.40;4.10;;;24.00;99.90;;;;;;5028517;28;20169;-63
2022/06/08 10:26:53;;;;;;;4.07;3.30;;;24.20;99.90;;;;;;5027035;28;20467;-62
2022/06/08 10:29:25;;;;;;;6.93;3.90;;;24.30;99.90;;;;;;5030667;28;20042;-62
2022/06/08 10:32:14;;;;;;;4.85;3.70;;;24.30;99.90;;;;;;5032348;28;20049;-62
2022/06/08 10:34:40;;;;;;;5.72;3.58;;;24.40;99.90;;;;;;5027520;28;20041;-62
2022/06/08 10:37:17;;;;;;;4.97;3.63;;;24.50;99.90;;;;;;5027365;28;20045;-63
2022/06/08 10:39:44;;;;;;;4.03;3.63;;;24.70;99.90;;;;;;5027069;28;20227;-63
2022/06/08 10:42:40;;;;;;;4.30;3.38;;;24.60;99.90;;;;;;5019936;28;20396;-63
2022/06/08 10:45:21;;;;;;;3.72;3.17;;;24.50;99.90;;;;;;5028938;28;20041;-63
2022/06/08 10:48:15;;;;;;;3.63;2.30;;;24.50;99.90;;;;;;5030936;28;20412;-63
2022/06/08 10:50:47;;;;;;;5.07;2.78;;;24.70;99.90;;;;;;5027501;28;20049;-63
2022/06/08 10:56:26;;;;;;;3.20;2.83;;;24.50;99.90;;;;;;5030940;28;20053;-63
2022/06/08 10:59:03;;;;;;;2.92;2.10;;;24.80;99.90;;;;;;5021483;28;20246;-63
2022/06/08 11:01:58;;;;;;;2.95;2.28;;;24.90;99.90;;;;;;5026491;28;20507;-63
2022/06/08 11:04:27;;;;;;;2.33;1.90;;;24.80;99.90;;;;;;5031577;28;20212;-62
2022/06/08 11:07:12;;;;;;;4.20;2.33;;;24.70;99.90;;;;;;5028218;28;20037;-62
2022/06/08 11:09:39;;;;;;;3.40;2.40;;;24.50;99.90;;;;;;5026676;28;20117;-63
2022/06/08 11:12:11;;;;;;;;;;;24.50;99.90;;;;;;5022463;28;20057;-63
2022/06/08 11:14:48;;;;;;;4.28;2.50;;;24.30;99.90;;;;;;5024036;28;19920;-62
2022/06/08 11:17:35;;;;;;;4.15;2.00;;;24.20;99.90;;;;;;5029942;28;20041;-62
2022/06/08 11:20:22;;;;;;;3.22;2.30;;;24.20;99.90;;;;;;5030868;28;20052;-63
2022/06/08 11:23:18;;;;;;;3.28;1.70;;;23.90;99.90;;;;;;5012664;28;20060;-63
2022/06/08 11:25:50;;;;;;;;;;;24.00;99.90;;;;;;5012618;28;20180;-63
2022/06/08 11:28:45;;;;;;;4.00;2.22;;;24.00;99.90;;;;;;5031349;28;19925;-63
2022/06/08 11:31:26;;;;;;;4.03;2.30;;;24.10;99.90;;;;;;5031948;28;20056;-63
2022/06/08 11:34:09;;;;;;;5.38;2.30;;;23.80;99.90;;;;;;5031688;28;20045;-63
2022/06/08 11:36:41;;;;;;;3.78;2.63;;;23.90;99.90;;;;;;5027371;28;20048;-63
2022/06/08 11:39:40;;;;;;;4.18;2.28;;;23.70;99.90;;;;;;5031224;28;20077;-63
2022/06/08 11:42:14;;;;;;;7.18;1.55;;;23.40;99.90;;;;;;5031477;28;20052;-62
2022/06/08 11:44:50;;;;;;;6.50;1.30;;;22.40;99.90;;;;;;5033707;28;20140;-64
2022/06/08 11:47:22;;;;;;;3.85;0.77;;;22.00;99.90;;;;;;5036081;28;20500;-62
2022/06/08 11:50:00;;;;;;;4.00;0.90;;;21.40;99.90;;;;;;5025841;28;20049;-63
2022/06/08 11:52:26;;;;;;;4.90;1.23;;;20.90;99.90;;;;;;5027353;28;20388;-63
2022/06/08 11:55:10;;;;;;;2.97;0.93;;;20.50;99.90;;;;;;5029304;28;20061;-62
2022/06/08 11:57:41;;;;;;;2.03;0.80;;;20.20;99.90;;;;;;5031094;28;20049;-63
2022/06/08 12:00:23;;;;;;;2.22;1.00;;;19.90;99.90;;;;;;5027704;28;20037;-62
2022/06/08 12:03:00;;;;;;;2.58;1.00;;;19.70;99.90;;;;;;5026698;28;20054;-63
2022/06/08 12:05:31;;;;;;;2.25;1.08;;;19.60;99.90;;;;;;5024223;28;20034;-63
2022/06/08 12:08:26;;;;;;;3.97;1.30;;;19.50;99.90;;;;;;5025502;28;20079;-63
2022/06/08 12:10:52;;;;;;;3.50;1.30;;;;;;;;;;5018106;28;20045;-63
2022/06/08 12:13:21;;;;;;;4.97;1.55;;;19.30;99.90;;;;;;5024286;28;20041;-63
2022/06/08 12:15:49;;;;;;;4.35;1.80;;;19.30;99.90;;;;;;5023930;28;20099;-63
2022/06/08 12:18:21;;;;;;;;;;;19.30;99.90;;;;;;5023588;28;20510;-62
2022/06/08 12:20:48;;;;;;;5.13;1.73;;;19.30;99.90;;;;;;5022274;28;19937;-64
2022/06/08 12:23:14;;;;;;;6.32;1.60;;;19.30;99.90;;;;;;5017515;28;20049;-63
2022/06/08 12:25:40;;;;;;;10.88;1.90;;;19.40;99.90;;;;;;5026092;28;20075;-63
2022/06/08 12:28:09;;;;;;;5.65;1.85;;;19.50;99.90;;;;;;5024654;28;20041;-63
2022/06/08 12:30:44;;;;;;;6.10;1.83;;;19.60;99.90;;;;;;5026057;28;20053;-63
2022/06/08 12:33:16;;;;;;;7.88;2.70;;;19.60;99.90;;;;;;5024291;28;20056;-64
2022/06/08 12:36:09;;;;;;;6.93;2.47;;;19.70;99.90;;;;;;5023943;28;20053;-63
2022/06/08 12:38:56;;;;;;;5.85;2.30;;;19.80;99.90;;;;;;5029940;28;20400;-63
2022/06/08 12:41:39;;;;;;;7.28;2.53;;;19.90;99.90;;;;;;5033170;28;20080;-63
2022/06/08 12:44:07;;;;;;;6.75;3.08;;;20.00;99.90;;;;;;5032461;28;20033;-63
2022/06/08 12:46:35;;;;;;;6.00;3.25;;;20.20;99.90;;;;;;5024889;28;20038;-63
2022/06/08 12:49:12;;;;;;;6.20;2.80;;;;;;;;;;5030243;28;20082;-63
2022/06/08 12:51:47;;;;;;;7.78;3.05;;;20.40;99.90;;;;;;5032215;28;20049;-64
2022/06/08 12:54:32;;;;;;;6.68;2.70;;;20.60;99.90;;;;;;5033593;28;20446;-64
2022/06/08 12:57:21;;;;;;;9.55;2.70;;;20.90;99.90;;;;;;5033032;28;20030;-63
2022/06/08 12:59:56;;;;;;;5.97;2.70;;;21.40;99.90;;;;;;5034498;28;20041;-64
2022/06/08 13:02:37;;;;;;;6.13;2.88;;;22.00;99.90;;;;;;5030935;28;20456;-64
2022/06/08 13:05:19;;;;;;;7.60;3.13;;;22.00;99.90;;;;;;5014375;28;20125;-64
2022/06/08 13:07:45;;;;;;;6.40;3.05;;;22.00;99.90;;;;;;5014394;28;20073;-63
2022/06/08 13:10:11;;;;;;;4.47;2.50;;;21.90;99.90;;;;;;5022652;28;20076;-64
2022/06/08 13:12:55;;;;;;;5.25;2.70;;;21.70;99.90;;;;;;5031873;28;20046;-63
2022/06/08 13:15:31;;;;;;;4.47;2.80;;;21.60;99.90;;;;;;5030609;28;20051;-64
2022/06/08 13:17:57;;;;;;;4.75;2.75;;;21.40;99.90;;;;;;5031835;28;20145;-63
2022/06/08 13:20:29;;;;;;;4.85;3.10;;;21.40;99.90;;;;;;5034086;28;20435;-63